sensor_id;sensor_type;location;lat;lon;timestamp;P1;durP1;ratioP1;P2;durP2;ratioP2
17592;SDS011;8915;51.760;14.300;2024-01-10T00:00:01;60.43;;;28.63;;
17592;SDS011;8915;51.760;14.300;2024-01-10T00:02:29;58.93;;;25.13;;
17592;SDS011;8915;51.760;14.300;2024-01-10T00:04:55;61.73;;;26.13;;
17592;SDS011;8915;51.760;14.300;2024-01-10T00:07:22;59.43;;;24.20;;
17592;SDS011;8915;51.760;14.300;2024-01-10T00:09:48;52.73;;;24.03;;
17592;SDS011;8915;51.760;14.300;2024-01-10T00:12:15;48.17;;;21.17;;
17592;SDS011;8915;51.760;14.300;2024-01-10T00:14:42;50.00;;;22.83;;
17592;SDS011;8915;51.760;14.300;2024-01-10T00:17:09;52.23;;;24.07;;
17592;SDS011;8915;51.760;14.300;2024-01-10T00:19:35;55.60;;;23.37;;
17592;SDS011;8915;51.760;14.300;2024-01-10T00:22:01;53.57;;;23.07;;
17592;SDS011;8915;51.760;14.300;2024-01-10T00:24:28;53.07;;;24.23;;
17592;SDS011;8915;51.760;14.300;2024-01-10T00:26:54;61.13;;;23.47;;
17592;SDS011;8915;51.760;14.300;2024-01-10T00:29:20;56.00;;;23.20;;
17592;SDS011;8915;51.760;14.300;2024-01-10T00:31:48;61.10;;;24.73;;
17592;SDS011;8915;51.760;14.300;2024-01-10T00:34:17;58.10;;;24.00;;
17592;SDS011;8915;51.760;14.300;2024-01-10T00:36:44;69.60;;;26.07;;
17592;SDS011;8915;51.760;14.300;2024-01-10T00:39:10;51.60;;;23.40;;
17592;SDS011;8915;51.760;14.300;2024-01-10T00:41:36;57.03;;;23.17;;
17592;SDS011;8915;51.760;14.300;2024-01-10T00:44:03;57.87;;;24.83;;
17592;SDS011;8915;51.760;14.300;2024-01-10T00:46:29;60.93;;;24.70;;
17592;SDS011;8915;51.760;14.300;2024-01-10T00:48:57;60.77;;;25.27;;
17592;SDS011;8915;51.760;14.300;2024-01-10T00:51:23;64.73;;;24.80;;
17592;SDS011;8915;51.760;14.300;2024-01-10T00:53:49;57.83;;;24.10;;
17592;SDS011;8915;51.760;14.300;2024-01-10T00:56:16;54.73;;;25.27;;
17592;SDS011;8915;51.760;14.300;2024-01-10T00:58:42;57.43;;;23.83;;
17592;SDS011;8915;51.760;14.300;2024-01-10T01:01:08;54.17;;;23.83;;
17592;SDS011;8915;51.760;14.300;2024-01-10T01:03:35;55.33;;;24.57;;
17592;SDS011;8915;51.760;14.300;2024-01-10T01:06:03;61.77;;;25.73;;
17592;SDS011;8915;51.760;14.300;2024-01-10T01:08:29;60.47;;;26.57;;
17592;SDS011;8915;51.760;14.300;2024-01-10T01:10:56;58.97;;;23.50;;
17592;SDS011;8915;51.760;14.300;2024-01-10T01:13:22;72.00;;;27.23;;
17592;SDS011;8915;51.760;14.300;2024-01-10T01:15:48;55.67;;;24.83;;
17592;SDS011;8915;51.760;14.300;2024-01-10T01:18:15;61.37;;;26.80;;
17592;SDS011;8915;51.760;14.300;2024-01-10T01:20:41;57.97;;;24.87;;
17592;SDS011;8915;51.760;14.300;2024-01-10T01:23:09;58.60;;;23.73;;
17592;SDS011;8915;51.760;14.300;2024-01-10T01:25:35;55.70;;;24.67;;
17592;SDS011;8915;51.760;14.300;2024-01-10T01:28:02;73.27;;;26.20;;
17592;SDS011;8915;51.760;14.300;2024-01-10T01:30:28;60.73;;;24.63;;
17592;SDS011;8915;51.760;14.300;2024-01-10T01:32:54;62.80;;;25.10;;
17592;SDS011;8915;51.760;14.300;2024-01-10T01:35:21;65.10;;;25.33;;
17592;SDS011;8915;51.760;14.300;2024-01-10T01:37:47;64.93;;;26.40;;
17592;SDS011;8915;51.760;14.300;2024-01-10T01:40:15;62.83;;;25.67;;
17592;SDS011;8915;51.760;14.300;2024-01-10T01:42:43;49.90;;;22.37;;
17592;SDS011;8915;51.760;14.300;2024-01-10T01:45:09;62.50;;;25.53;;
17592;SDS011;8915;51.760;14.300;2024-01-10T01:47:36;63.87;;;24.97;;
17592;SDS011;8915;51.760;14.300;2024-01-10T01:50:03;58.43;;;26.37;;
17592;SDS011;8915;51.760;14.300;2024-01-10T01:52:30;59.43;;;25.53;;
17592;SDS011;8915;51.760;14.300;2024-01-10T01:54:59;61.80;;;26.13;;
17592;SDS011;8915;51.760;14.300;2024-01-10T01:57:27;59.20;;;25.17;;
17592;SDS011;8915;51.760;14.300;2024-01-10T01:59:53;68.03;;;27.20;;
17592;SDS011;8915;51.760;14.300;2024-01-10T02:02:20;62.10;;;25.97;;
17592;SDS011;8915;51.760;14.300;2024-01-10T02:04:47;64.87;;;29.70;;
17592;SDS011;8915;51.760;14.300;2024-01-10T02:07:14;67.37;;;25.93;;
17592;SDS011;8915;51.760;14.300;2024-01-10T02:09:40;55.47;;;24.77;;
17592;SDS011;8915;51.760;14.300;2024-01-10T02:12:06;61.77;;;26.10;;
17592;SDS011;8915;51.760;14.300;2024-01-10T02:14:34;74.07;;;31.50;;
17592;SDS011;8915;51.760;14.300;2024-01-10T02:17:02;106.60;;;39.47;;
17592;SDS011;8915;51.760;14.300;2024-01-10T02:19:28;65.30;;;30.50;;
17592;SDS011;8915;51.760;14.300;2024-01-10T02:21:56;103.10;;;37.87;;
17592;SDS011;8915;51.760;14.300;2024-01-10T02:24:22;78.90;;;32.70;;
17592;SDS011;8915;51.760;14.300;2024-01-10T02:26:50;61.83;;;27.77;;
17592;SDS011;8915;51.760;14.300;2024-01-10T02:29:16;67.20;;;26.83;;
17592;SDS011;8915;51.760;14.300;2024-01-10T02:31:43;62.83;;;26.67;;
17592;SDS011;8915;51.760;14.300;2024-01-10T02:34:10;58.27;;;25.97;;
17592;SDS011;8915;51.760;14.300;2024-01-10T02:36:36;68.97;;;28.83;;
17592;SDS011;8915;51.760;14.300;2024-01-10T02:39:03;70.70;;;27.30;;
17592;SDS011;8915;51.760;14.300;2024-01-10T02:41:29;68.60;;;25.87;;
17592;SDS011;8915;51.760;14.300;2024-01-10T02:43:57;63.07;;;24.97;;
17592;SDS011;8915;51.760;14.300;2024-01-10T02:46:23;67.20;;;25.30;;
17592;SDS011;8915;51.760;14.300;2024-01-10T02:48:52;70.07;;;25.17;;
17592;SDS011;8915;51.760;14.300;2024-01-10T02:51:19;66.73;;;27.47;;
17592;SDS011;8915;51.760;14.300;2024-01-10T02:53:46;66.90;;;26.00;;
17592;SDS011;8915;51.760;14.300;2024-01-10T02:56:12;70.20;;;26.77;;
17592;SDS011;8915;51.760;14.300;2024-01-10T02:58:39;60.23;;;26.67;;
17592;SDS011;8915;51.760;14.300;2024-01-10T03:01:06;59.70;;;25.37;;
17592;SDS011;8915;51.760;14.300;2024-01-10T03:03:34;58.70;;;26.07;;
17592;SDS011;8915;51.760;14.300;2024-01-10T03:06:00;55.97;;;25.17;;
17592;SDS011;8915;51.760;14.300;2024-01-10T03:08:27;58.77;;;25.23;;
17592;SDS011;8915;51.760;14.300;2024-01-10T03:10:53;69.30;;;28.77;;
17592;SDS011;8915;51.760;14.300;2024-01-10T03:13:19;63.63;;;25.80;;
17592;SDS011;8915;51.760;14.300;2024-01-10T03:15:45;59.70;;;26.47;;
17592;SDS011;8915;51.760;14.300;2024-01-10T03:18:13;66.07;;;25.97;;
17592;SDS011;8915;51.760;14.300;2024-01-10T03:20:40;67.77;;;28.97;;
17592;SDS011;8915;51.760;14.300;2024-01-10T03:23:06;71.57;;;29.70;;
17592;SDS011;8915;51.760;14.300;2024-01-10T03:25:32;66.90;;;28.60;;
17592;SDS011;8915;51.760;14.300;2024-01-10T03:27:59;65.13;;;26.33;;
17592;SDS011;8915;51.760;14.300;2024-01-10T03:30:25;58.17;;;25.13;;
17592;SDS011;8915;51.760;14.300;2024-01-10T03:32:51;58.83;;;25.43;;
17592;SDS011;8915;51.760;14.300;2024-01-10T03:35:19;58.67;;;23.90;;
17592;SDS011;8915;51.760;14.300;2024-01-10T03:37:45;65.33;;;26.67;;
17592;SDS011;8915;51.760;14.300;2024-01-10T03:40:12;62.90;;;25.33;;
17592;SDS011;8915;51.760;14.300;2024-01-10T03:42:39;74.60;;;26.80;;
17592;SDS011;8915;51.760;14.300;2024-01-10T03:45:05;64.57;;;27.20;;
17592;SDS011;8915;51.760;14.300;2024-01-10T03:47:32;66.27;;;26.97;;
17592;SDS011;8915;51.760;14.300;2024-01-10T03:49:58;61.53;;;25.20;;
17592;SDS011;8915;51.760;14.300;2024-01-10T03:52:26;69.07;;;25.97;;
17592;SDS011;8915;51.760;14.300;2024-01-10T03:54:52;66.17;;;26.67;;
17592;SDS011;8915;51.760;14.300;2024-01-10T03:57:18;53.47;;;25.70;;
17592;SDS011;8915;51.760;14.300;2024-01-10T03:59:44;69.00;;;28.73;;
17592;SDS011;8915;51.760;14.300;2024-01-10T04:02:11;73.70;;;30.17;;
17592;SDS011;8915;51.760;14.300;2024-01-10T04:04:37;65.47;;;27.37;;
17592;SDS011;8915;51.760;14.300;2024-01-10T04:07:04;71.03;;;28.67;;
17592;SDS011;8915;51.760;14.300;2024-01-10T04:09:31;97.53;;;34.37;;
17592;SDS011;8915;51.760;14.300;2024-01-10T04:11:58;77.37;;;29.20;;
17592;SDS011;8915;51.760;14.300;2024-01-10T04:14:24;92.50;;;34.47;;
17592;SDS011;8915;51.760;14.300;2024-01-10T04:16:51;99.17;;;37.00;;
17592;SDS011;8915;51.760;14.300;2024-01-10T04:19:18;65.83;;;26.30;;
17592;SDS011;8915;51.760;14.300;2024-01-10T04:21:45;56.30;;;23.73;;
17592;SDS011;8915;51.760;14.300;2024-01-10T04:24:12;66.37;;;28.10;;
17592;SDS011;8915;51.760;14.300;2024-01-10T04:26:39;55.93;;;26.30;;
17592;SDS011;8915;51.760;14.300;2024-01-10T04:29:06;60.00;;;25.63;;
17592;SDS011;8915;51.760;14.300;2024-01-10T04:31:33;73.50;;;29.80;;
17592;SDS011;8915;51.760;14.300;2024-01-10T04:34:00;58.03;;;26.23;;
17592;SDS011;8915;51.760;14.300;2024-01-10T04:36:27;63.90;;;26.87;;
17592;SDS011;8915;51.760;14.300;2024-01-10T04:38:53;61.00;;;27.30;;
17592;SDS011;8915;51.760;14.300;2024-01-10T04:41:19;56.33;;;25.77;;
17592;SDS011;8915;51.760;14.300;2024-01-10T04:43:47;56.97;;;25.83;;
17592;SDS011;8915;51.760;14.300;2024-01-10T04:46:13;56.57;;;24.83;;
17592;SDS011;8915;51.760;14.300;2024-01-10T04:48:40;55.47;;;24.20;;
17592;SDS011;8915;51.760;14.300;2024-01-10T04:51:06;57.57;;;22.93;;
17592;SDS011;8915;51.760;14.300;2024-01-10T04:53:32;47.10;;;21.80;;
17592;SDS011;8915;51.760;14.300;2024-01-10T04:55:59;66.60;;;26.73;;
17592;SDS011;8915;51.760;14.300;2024-01-10T04:58:25;52.97;;;23.63;;
17592;SDS011;8915;51.760;14.300;2024-01-10T05:00:53;66.07;;;25.33;;
17592;SDS011;8915;51.760;14.300;2024-01-10T05:03:20;58.70;;;24.57;;
17592;SDS011;8915;51.760;14.300;2024-01-10T05:05:46;61.00;;;25.33;;
17592;SDS011;8915;51.760;14.300;2024-01-10T05:08:12;63.90;;;24.30;;
17592;SDS011;8915;51.760;14.300;2024-01-10T05:10:39;60.03;;;25.87;;
17592;SDS011;8915;51.760;14.300;2024-01-10T05:13:05;63.47;;;26.47;;
17592;SDS011;8915;51.760;14.300;2024-01-10T05:15:32;62.90;;;27.13;;
17592;SDS011;8915;51.760;14.300;2024-01-10T05:17:59;54.57;;;25.00;;
17592;SDS011;8915;51.760;14.300;2024-01-10T05:20:26;54.17;;;23.90;;
17592;SDS011;8915;51.760;14.300;2024-01-10T05:22:52;60.93;;;25.07;;
17592;SDS011;8915;51.760;14.300;2024-01-10T05:25:18;55.20;;;22.83;;
17592;SDS011;8915;51.760;14.300;2024-01-10T05:27:45;60.33;;;24.37;;
17592;SDS011;8915;51.760;14.300;2024-01-10T05:30:11;57.30;;;24.57;;
17592;SDS011;8915;51.760;14.300;2024-01-10T05:32:38;57.50;;;23.73;;
17592;SDS011;8915;51.760;14.300;2024-01-10T05:35:06;67.80;;;25.33;;
17592;SDS011;8915;51.760;14.300;2024-01-10T05:37:35;63.57;;;26.33;;
17592;SDS011;8915;51.760;14.300;2024-01-10T05:40:01;56.90;;;24.37;;
17592;SDS011;8915;51.760;14.300;2024-01-10T05:42:28;61.30;;;23.90;;
17592;SDS011;8915;51.760;14.300;2024-01-10T05:44:55;59.77;;;24.40;;
17592;SDS011;8915;51.760;14.300;2024-01-10T05:47:21;58.97;;;23.93;;
17592;SDS011;8915;51.760;14.300;2024-01-10T05:49:47;57.73;;;24.43;;
17592;SDS011;8915;51.760;14.300;2024-01-10T05:52:15;60.77;;;24.33;;
17592;SDS011;8915;51.760;14.300;2024-01-10T05:54:41;50.45;;;24.40;;
17592;SDS011;8915;51.760;14.300;2024-01-10T05:57:08;55.90;;;23.93;;
17592;SDS011;8915;51.760;14.300;2024-01-10T05:59:34;59.42;;;23.38;;
17592;SDS011;8915;51.760;14.300;2024-01-10T06:02:00;59.73;;;24.67;;
17592;SDS011;8915;51.760;14.300;2024-01-10T06:04:27;55.77;;;24.40;;
17592;SDS011;8915;51.760;14.300;2024-01-10T06:06:56;57.67;;;23.50;;
17592;SDS011;8915;51.760;14.300;2024-01-10T06:09:24;52.60;;;23.13;;
17592;SDS011;8915;51.760;14.300;2024-01-10T06:11:51;58.97;;;23.07;;
17592;SDS011;8915;51.760;14.300;2024-01-10T06:14:17;67.73;;;26.13;;
17592;SDS011;8915;51.760;14.300;2024-01-10T06:16:44;51.75;;;22.67;;
17592;SDS011;8915;51.760;14.300;2024-01-10T06:19:10;58.87;;;26.00;;
17592;SDS011;8915;51.760;14.300;2024-01-10T06:21:37;53.43;;;25.60;;
17592;SDS011;8915;51.760;14.300;2024-01-10T06:24:04;58.07;;;23.53;;
17592;SDS011;8915;51.760;14.300;2024-01-10T06:26:32;55.60;;;25.33;;
17592;SDS011;8915;51.760;14.300;2024-01-10T06:28:58;55.97;;;24.73;;
17592;SDS011;8915;51.760;14.300;2024-01-10T06:31:25;60.20;;;26.52;;
17592;SDS011;8915;51.760;14.300;2024-01-10T06:33:51;60.83;;;24.13;;
17592;SDS011;8915;51.760;14.300;2024-01-10T06:36:17;65.93;;;26.08;;
17592;SDS011;8915;51.760;14.300;2024-01-10T06:38:44;53.30;;;23.93;;
17592;SDS011;8915;51.760;14.300;2024-01-10T06:41:10;57.50;;;24.40;;
17592;SDS011;8915;51.760;14.300;2024-01-10T06:43:40;62.05;;;25.52;;
17592;SDS011;8915;51.760;14.300;2024-01-10T06:46:06;59.57;;;25.97;;
17592;SDS011;8915;51.760;14.300;2024-01-10T06:48:33;60.53;;;24.60;;
17592;SDS011;8915;51.760;14.300;2024-01-10T06:50:59;54.25;;;22.98;;
17592;SDS011;8915;51.760;14.300;2024-01-10T06:53:25;59.45;;;25.77;;
17592;SDS011;8915;51.760;14.300;2024-01-10T06:55:52;72.83;;;28.33;;
17592;SDS011;8915;51.760;14.300;2024-01-10T06:58:18;59.63;;;26.17;;
17592;SDS011;8915;51.760;14.300;2024-01-10T07:00:46;55.45;;;24.67;;
17592;SDS011;8915;51.760;14.300;2024-01-10T07:03:12;52.17;;;21.17;;
17592;SDS011;8915;51.760;14.300;2024-01-10T07:05:38;52.73;;;23.20;;
17592;SDS011;8915;51.760;14.300;2024-01-10T07:08:05;54.38;;;24.35;;
17592;SDS011;8915;51.760;14.300;2024-01-10T07:10:31;60.03;;;23.97;;
17592;SDS011;8915;51.760;14.300;2024-01-10T07:12:57;70.37;;;27.17;;
17592;SDS011;8915;51.760;14.300;2024-01-10T07:15:24;54.17;;;23.90;;
17592;SDS011;8915;51.760;14.300;2024-01-10T07:17:51;57.72;;;23.50;;
17592;SDS011;8915;51.760;14.300;2024-01-10T07:20:18;56.72;;;23.23;;
17592;SDS011;8915;51.760;14.300;2024-01-10T07:22:44;51.83;;;24.65;;
17592;SDS011;8915;51.760;14.300;2024-01-10T07:25:11;64.97;;;26.02;;
17592;SDS011;8915;51.760;14.300;2024-01-10T07:27:39;60.93;;;25.03;;
17592;SDS011;8915;51.760;14.300;2024-01-10T07:30:06;58.00;;;25.63;;
17592;SDS011;8915;51.760;14.300;2024-01-10T07:32:38;63.83;;;26.45;;
17592;SDS011;8915;51.760;14.300;2024-01-10T07:35:06;56.00;;;26.00;;
17592;SDS011;8915;51.760;14.300;2024-01-10T07:37:34;70.22;;;26.92;;
17592;SDS011;8915;51.760;14.300;2024-01-10T07:40:01;63.90;;;26.10;;
17592;SDS011;8915;51.760;14.300;2024-01-10T07:42:28;64.63;;;28.93;;
17592;SDS011;8915;51.760;14.300;2024-01-10T07:44:54;66.30;;;27.63;;
17592;SDS011;8915;51.760;14.300;2024-01-10T07:47:22;75.25;;;30.50;;
17592;SDS011;8915;51.760;14.300;2024-01-10T07:49:48;77.25;;;32.75;;
17592;SDS011;8915;51.760;14.300;2024-01-10T07:52:16;67.47;;;29.40;;
17592;SDS011;8915;51.760;14.300;2024-01-10T07:54:42;86.80;;;33.17;;
17592;SDS011;8915;51.760;14.300;2024-01-10T07:57:08;74.60;;;32.50;;
17592;SDS011;8915;51.760;14.300;2024-01-10T07:59:35;66.73;;;29.87;;
17592;SDS011;8915;51.760;14.300;2024-01-10T08:02:01;96.17;;;40.60;;
17592;SDS011;8915;51.760;14.300;2024-01-10T08:04:27;68.70;;;29.90;;
17592;SDS011;8915;51.760;14.300;2024-01-10T08:06:54;82.50;;;33.50;;
17592;SDS011;8915;51.760;14.300;2024-01-10T08:09:22;81.03;;;32.40;;
17592;SDS011;8915;51.760;14.300;2024-01-10T08:11:49;70.82;;;31.30;;
17592;SDS011;8915;51.760;14.300;2024-01-10T08:14:16;78.80;;;31.80;;
17592;SDS011;8915;51.760;14.300;2024-01-10T08:16:42;77.63;;;33.30;;
17592;SDS011;8915;51.760;14.300;2024-01-10T08:19:10;76.63;;;31.57;;
17592;SDS011;8915;51.760;14.300;2024-01-10T08:21:36;72.53;;;30.57;;
17592;SDS011;8915;51.760;14.300;2024-01-10T08:24:03;72.23;;;31.70;;
17592;SDS011;8915;51.760;14.300;2024-01-10T08:26:31;73.07;;;32.10;;
17592;SDS011;8915;51.760;14.300;2024-01-10T08:28:58;77.57;;;32.20;;
17592;SDS011;8915;51.760;14.300;2024-01-10T08:31:24;76.80;;;29.10;;
17592;SDS011;8915;51.760;14.300;2024-01-10T08:33:52;71.67;;;31.87;;
17592;SDS011;8915;51.760;14.300;2024-01-10T08:36:18;80.97;;;31.83;;
17592;SDS011;8915;51.760;14.300;2024-01-10T08:38:44;94.40;;;36.53;;
17592;SDS011;8915;51.760;14.300;2024-01-10T08:41:11;84.00;;;37.67;;
17592;SDS011;8915;51.760;14.300;2024-01-10T08:43:39;81.93;;;34.07;;
17592;SDS011;8915;51.760;14.300;2024-01-10T08:46:08;76.73;;;33.87;;
17592;SDS011;8915;51.760;14.300;2024-01-10T08:48:34;74.90;;;30.37;;
17592;SDS011;8915;51.760;14.300;2024-01-10T08:51:01;79.63;;;33.13;;
17592;SDS011;8915;51.760;14.300;2024-01-10T08:53:28;80.90;;;33.40;;
17592;SDS011;8915;51.760;14.300;2024-01-10T08:55:54;73.47;;;32.83;;
17592;SDS011;8915;51.760;14.300;2024-01-10T08:58:20;81.10;;;34.67;;
17592;SDS011;8915;51.760;14.300;2024-01-10T09:00:48;77.37;;;32.03;;
17592;SDS011;8915;51.760;14.300;2024-01-10T09:03:15;85.90;;;33.67;;
17592;SDS011;8915;51.760;14.300;2024-01-10T09:05:41;81.30;;;31.73;;
17592;SDS011;8915;51.760;14.300;2024-01-10T09:08:07;81.67;;;33.60;;
17592;SDS011;8915;51.760;14.300;2024-01-10T09:10:34;76.47;;;33.93;;
17592;SDS011;8915;51.760;14.300;2024-01-10T09:13:00;84.07;;;34.00;;
17592;SDS011;8915;51.760;14.300;2024-01-10T09:15:26;72.50;;;31.90;;
17592;SDS011;8915;51.760;14.300;2024-01-10T09:17:54;81.60;;;33.80;;
17592;SDS011;8915;51.760;14.300;2024-01-10T09:20:20;87.83;;;34.93;;
17592;SDS011;8915;51.760;14.300;2024-01-10T09:22:47;87.63;;;35.27;;
17592;SDS011;8915;51.760;14.300;2024-01-10T09:25:14;82.67;;;34.87;;
17592;SDS011;8915;51.760;14.300;2024-01-10T09:27:40;83.87;;;34.17;;
17592;SDS011;8915;51.760;14.300;2024-01-10T09:30:09;95.60;;;38.00;;
17592;SDS011;8915;51.760;14.300;2024-01-10T09:32:35;80.50;;;34.80;;
17592;SDS011;8915;51.760;14.300;2024-01-10T09:35:03;79.30;;;34.93;;
17592;SDS011;8915;51.760;14.300;2024-01-10T09:37:30;88.63;;;37.27;;
17592;SDS011;8915;51.760;14.300;2024-01-10T09:39:56;83.57;;;36.50;;
17592;SDS011;8915;51.760;14.300;2024-01-10T09:42:23;80.57;;;33.87;;
17592;SDS011;8915;51.760;14.300;2024-01-10T09:44:50;91.33;;;37.70;;
17592;SDS011;8915;51.760;14.300;2024-01-10T09:47:17;105.07;;;39.03;;
17592;SDS011;8915;51.760;14.300;2024-01-10T09:49:46;90.83;;;37.17;;
17592;SDS011;8915;51.760;14.300;2024-01-10T09:52:16;84.53;;;35.83;;
17592;SDS011;8915;51.760;14.300;2024-01-10T09:54:50;86.10;;;37.27;;
17592;SDS011;8915;51.760;14.300;2024-01-10T09:57:21;79.83;;;33.07;;
17592;SDS011;8915;51.760;14.300;2024-01-10T09:59:48;83.40;;;34.30;;
17592;SDS011;8915;51.760;14.300;2024-01-10T10:02:16;74.77;;;35.27;;
17592;SDS011;8915;51.760;14.300;2024-01-10T10:04:44;80.43;;;34.07;;
17592;SDS011;8915;51.760;14.300;2024-01-10T10:07:21;92.77;;;35.97;;
17592;SDS011;8915;51.760;14.300;2024-01-10T10:09:47;90.50;;;34.93;;
17592;SDS011;8915;51.760;14.300;2024-01-10T10:12:13;80.13;;;34.10;;
17592;SDS011;8915;51.760;14.300;2024-01-10T10:14:40;87.20;;;35.07;;
17592;SDS011;8915;51.760;14.300;2024-01-10T10:17:16;87.20;;;36.07;;
17592;SDS011;8915;51.760;14.300;2024-01-10T10:19:43;79.93;;;36.07;;
17592;SDS011;8915;51.760;14.300;2024-01-10T10:22:10;93.40;;;35.33;;
17592;SDS011;8915;51.760;14.300;2024-01-10T10:24:38;83.57;;;34.90;;
17592;SDS011;8915;51.760;14.300;2024-01-10T10:27:07;82.07;;;36.27;;
17592;SDS011;8915;51.760;14.300;2024-01-10T10:29:35;81.87;;;33.30;;
17592;SDS011;8915;51.760;14.300;2024-01-10T10:32:02;82.20;;;36.07;;
17592;SDS011;8915;51.760;14.300;2024-01-10T10:34:30;88.13;;;35.77;;
17592;SDS011;8915;51.760;14.300;2024-01-10T10:36:58;80.60;;;34.43;;
17592;SDS011;8915;51.760;14.300;2024-01-10T10:39:24;82.77;;;34.80;;
17592;SDS011;8915;51.760;14.300;2024-01-10T10:41:52;84.20;;;35.80;;
17592;SDS011;8915;51.760;14.300;2024-01-10T10:44:19;88.63;;;37.57;;
17592;SDS011;8915;51.760;14.300;2024-01-10T10:46:52;89.90;;;34.47;;
17592;SDS011;8915;51.760;14.300;2024-01-10T10:49:22;83.03;;;34.80;;
17592;SDS011;8915;51.760;14.300;2024-01-10T10:51:53;82.97;;;36.73;;
17592;SDS011;8915;51.760;14.300;2024-01-10T10:54:23;85.03;;;35.70;;
17592;SDS011;8915;51.760;14.300;2024-01-10T10:56:54;78.53;;;34.37;;
17592;SDS011;8915;51.760;14.300;2024-01-10T10:59:23;75.87;;;34.10;;
17592;SDS011;8915;51.760;14.300;2024-01-10T11:01:52;79.70;;;32.33;;
17592;SDS011;8915;51.760;14.300;2024-01-10T11:04:20;74.73;;;32.20;;
17592;SDS011;8915;51.760;14.300;2024-01-10T11:06:47;71.07;;;31.53;;
17592;SDS011;8915;51.760;14.300;2024-01-10T11:09:14;70.40;;;30.40;;
17592;SDS011;8915;51.760;14.300;2024-01-10T11:11:48;68.67;;;28.87;;
17592;SDS011;8915;51.760;14.300;2024-01-10T11:14:34;81.30;;;30.90;;
17592;SDS011;8915;51.760;14.300;2024-01-10T11:20:30;62.47;;;29.13;;
17592;SDS011;8915;51.760;14.300;2024-01-10T11:26:09;66.10;;;30.00;;
17592;SDS011;8915;51.760;14.300;2024-01-10T11:28:38;71.53;;;30.93;;
17592;SDS011;8915;51.760;14.300;2024-01-10T11:31:07;72.97;;;29.90;;
17592;SDS011;8915;51.760;14.300;2024-01-10T11:33:35;70.43;;;29.40;;
17592;SDS011;8915;51.760;14.300;2024-01-10T11:36:08;69.97;;;29.77;;
17592;SDS011;8915;51.760;14.300;2024-01-10T11:38:38;67.07;;;29.80;;
17592;SDS011;8915;51.760;14.300;2024-01-10T11:41:05;74.83;;;30.67;;
17592;SDS011;8915;51.760;14.300;2024-01-10T11:43:33;75.87;;;31.47;;
17592;SDS011;8915;51.760;14.300;2024-01-10T11:46:00;62.37;;;29.47;;
17592;SDS011;8915;51.760;14.300;2024-01-10T11:48:31;66.57;;;32.03;;
17592;SDS011;8915;51.760;14.300;2024-01-10T11:50:58;73.50;;;29.93;;
17592;SDS011;8915;51.760;14.300;2024-01-10T11:53:38;64.00;;;28.60;;
17592;SDS011;8915;51.760;14.300;2024-01-10T11:56:11;64.23;;;30.47;;
17592;SDS011;8915;51.760;14.300;2024-01-10T11:58:55;74.37;;;32.70;;
17592;SDS011;8915;51.760;14.300;2024-01-10T12:01:28;76.47;;;33.57;;
17592;SDS011;8915;51.760;14.300;2024-01-10T12:03:56;72.00;;;30.87;;
17592;SDS011;8915;51.760;14.300;2024-01-10T12:06:23;74.03;;;31.90;;
17592;SDS011;8915;51.760;14.300;2024-01-10T12:08:50;71.43;;;30.43;;
17592;SDS011;8915;51.760;14.300;2024-01-10T12:11:16;73.03;;;29.87;;
17592;SDS011;8915;51.760;14.300;2024-01-10T12:13:43;75.63;;;32.00;;
17592;SDS011;8915;51.760;14.300;2024-01-10T12:16:10;83.40;;;34.63;;
17592;SDS011;8915;51.760;14.300;2024-01-10T12:18:37;72.03;;;31.70;;
17592;SDS011;8915;51.760;14.300;2024-01-10T12:21:05;74.17;;;32.43;;
17592;SDS011;8915;51.760;14.300;2024-01-10T12:23:33;72.37;;;32.13;;
17592;SDS011;8915;51.760;14.300;2024-01-10T12:26:01;67.53;;;30.77;;
17592;SDS011;8915;51.760;14.300;2024-01-10T12:28:28;74.23;;;31.07;;
17592;SDS011;8915;51.760;14.300;2024-01-10T12:30:54;70.37;;;30.00;;
17592;SDS011;8915;51.760;14.300;2024-01-10T12:33:21;64.93;;;32.00;;
17592;SDS011;8915;51.760;14.300;2024-01-10T12:36:01;59.70;;;31.13;;
17592;SDS011;8915;51.760;14.300;2024-01-10T12:38:30;65.73;;;29.13;;
17592;SDS011;8915;51.760;14.300;2024-01-10T12:40:57;67.50;;;30.43;;
17592;SDS011;8915;51.760;14.300;2024-01-10T12:43:23;64.20;;;30.30;;
17592;SDS011;8915;51.760;14.300;2024-01-10T12:46:01;75.67;;;30.70;;
17592;SDS011;8915;51.760;14.300;2024-01-10T12:48:29;78.33;;;30.57;;
17592;SDS011;8915;51.760;14.300;2024-01-10T12:50:55;65.00;;;28.33;;
17592;SDS011;8915;51.760;14.300;2024-01-10T12:53:22;68.00;;;29.93;;
17592;SDS011;8915;51.760;14.300;2024-01-10T12:55:49;62.40;;;27.47;;
17592;SDS011;8915;51.760;14.300;2024-01-10T12:58:15;71.00;;;30.20;;
17592;SDS011;8915;51.760;14.300;2024-01-10T13:00:42;64.70;;;30.40;;
17592;SDS011;8915;51.760;14.300;2024-01-10T13:03:08;62.30;;;29.37;;
17592;SDS011;8915;51.760;14.300;2024-01-10T13:05:34;66.50;;;28.67;;
17592;SDS011;8915;51.760;14.300;2024-01-10T13:08:01;67.73;;;31.10;;
17592;SDS011;8915;51.760;14.300;2024-01-10T13:10:30;71.13;;;30.47;;
17592;SDS011;8915;51.760;14.300;2024-01-10T13:12:58;67.60;;;31.17;;
17592;SDS011;8915;51.760;14.300;2024-01-10T13:15:24;62.60;;;28.83;;
17592;SDS011;8915;51.760;14.300;2024-01-10T13:17:50;73.17;;;32.13;;
17592;SDS011;8915;51.760;14.300;2024-01-10T13:20:16;72.73;;;32.37;;
17592;SDS011;8915;51.760;14.300;2024-01-10T13:22:43;76.20;;;30.97;;
17592;SDS011;8915;51.760;14.300;2024-01-10T13:25:10;64.53;;;29.60;;
17592;SDS011;8915;51.760;14.300;2024-01-10T13:27:37;69.93;;;30.60;;
17592;SDS011;8915;51.760;14.300;2024-01-10T13:30:06;61.33;;;30.27;;
17592;SDS011;8915;51.760;14.300;2024-01-10T13:32:36;63.57;;;28.57;;
17592;SDS011;8915;51.760;14.300;2024-01-10T13:35:02;72.03;;;29.80;;
17592;SDS011;8915;51.760;14.300;2024-01-10T13:37:29;65.13;;;30.13;;
17592;SDS011;8915;51.760;14.300;2024-01-10T13:39:57;64.67;;;29.10;;
17592;SDS011;8915;51.760;14.300;2024-01-10T13:42:24;68.93;;;29.47;;
17592;SDS011;8915;51.760;14.300;2024-01-10T13:44:51;63.03;;;29.00;;
17592;SDS011;8915;51.760;14.300;2024-01-10T13:47:18;80.63;;;32.00;;
17592;SDS011;8915;51.760;14.300;2024-01-10T13:49:46;64.93;;;28.87;;
17592;SDS011;8915;51.760;14.300;2024-01-10T13:52:13;78.13;;;31.17;;
17592;SDS011;8915;51.760;14.300;2024-01-10T13:54:39;71.57;;;30.23;;
17592;SDS011;8915;51.760;14.300;2024-01-10T13:57:05;66.90;;;31.77;;
17592;SDS011;8915;51.760;14.300;2024-01-10T13:59:32;68.67;;;31.03;;
17592;SDS011;8915;51.760;14.300;2024-01-10T14:01:59;67.17;;;28.97;;
17592;SDS011;8915;51.760;14.300;2024-01-10T14:04:27;75.40;;;30.10;;
17592;SDS011;8915;51.760;14.300;2024-01-10T14:06:53;59.33;;;27.57;;
17592;SDS011;8915;51.760;14.300;2024-01-10T14:09:19;67.10;;;31.17;;
17592;SDS011;8915;51.760;14.300;2024-01-10T14:11:45;72.43;;;30.50;;
17592;SDS011;8915;51.760;14.300;2024-01-10T14:14:13;75.40;;;31.00;;
17592;SDS011;8915;51.760;14.300;2024-01-10T14:16:40;67.20;;;28.77;;
17592;SDS011;8915;51.760;14.300;2024-01-10T14:19:07;63.03;;;29.93;;
17592;SDS011;8915;51.760;14.300;2024-01-10T14:21:34;65.57;;;28.30;;
17592;SDS011;8915;51.760;14.300;2024-01-10T14:24:01;68.40;;;27.73;;
17592;SDS011;8915;51.760;14.300;2024-01-10T14:26:27;64.73;;;28.07;;